Metrocenter, Mississippi
Current Conditions -  °F | °C
As of 10:53 PM on Wednesday 26 Nov 2014 (Local Time) from KHKS Reporting Station
Clear Clear  
Wind Chill: 51°   Ceiling: Unl
Heat Index: 51°   Visibility: 10mi
Dew Point: 30°   Wind: 10mph
Humidity: 44%   Direction: 320°NW
Pressure: 30.23"   Gusts: NA
Location:  32.4465°N, 90.3124°W
Report Text: KHKS 270453Z AUTO 32009KT 10SM CLR 11/M01 A3023 RMK AO2 SLP232 T01061011
Loading
Personal Weather Stations






























Interactive Weather Map New forecast layout! Learn more

10-Day Weather Forecast

Advertisements
Track Severe Weather on mobile